WX6HNX-6 Weather Reports


time (UTC)temp
C
wind
direction
speed
KPH
gust
KPH
rain 1hr
cm
rain 24hr
cm
rain mn
cm
humidity
%
barometer
mb
20260508100709 17 240 6.4 11.3 0.00 0.00 0.00 69 1015.3
20260508100209 17 239 6.4 11.3 0.00 0.00 0.00 69 1015.3
20260508095709 17 0 0.0 0.0 0.00 0.00 0.00 70 1015.2
20260508095207 17 0 0.0 0.0 0.00 0.00 0.00 70 1015.2
20260508094707 17 0 0.0 0.0 0.00 0.00 0.00 69 1015.2
20260508094207 17 0 0.0 0.0 0.00 0.00 0.00 69 1015.1
20260508093707 17 0 0.0 0.0 0.00 0.00 0.00 70 1015.1
20260508093207 18 0 0.0 0.0 0.00 0.00 0.00 71 1015.1
20260508092707 18 0 0.0 0.0 0.00 0.00 0.00 71 1015.2
20260508092044 18 0 0.0 0.0 0.00 0.00 0.00 70 1015.2
20260508091546 18 0 0.0 0.0 0.00 0.00 0.00 70 1015.2
20260508091044 18 0 0.0 1.6 0.00 0.00 0.00 69 1015.2
20260508090544 18 0 0.0 1.6 0.00 0.00 0.00 69 1015.2
20260508085820 19 305 3.2 6.4 0.00 0.00 0.00 68 1015.3
20260508085320 19 304 1.6 8.0 0.00 0.00 0.00 67 1015.3
20260508084821 19 301 4.8 11.3 0.00 0.00 0.00 67 1015.3
20260508084320 19 303 6.4 11.3 0.00 0.00 0.00 66 1015.3
20260508083821 20 309 6.4 8.0 0.00 0.00 0.00 66 1015.3
20260508083153 20 312 6.4 11.3 0.00 0.00 0.00 66 1015.3
20260508082653 20 309 6.4 11.3 0.00 0.00 0.00 66 1015.3
20260508082152 20 306 6.4 11.3 0.00 0.00 0.00 66 1015.3
20260508081652 20 295 6.4 11.3 0.00 0.00 0.00 66 1015.4
20260508081152 20 303 6.4 11.3 0.00 0.00 0.00 65 1015.4
20260508080651 20 322 4.8 12.9 0.00 0.00 0.00 65 1015.4
20260508080151 20 317 6.4 12.9 0.00 0.00 0.00 64 1015.4
20260508075652 20 325 6.4 12.9 0.00 0.00 0.00 64 1015.4
20260508075152 20 329 6.4 12.9 0.00 0.00 0.00 64 1015.4
20260508074652 20 337 6.4 9.7 0.00 0.00 0.00 64 1015.5
20260508074154 20 337 4.8 9.7 0.00 0.00 0.00 64 1015.4
20260508073652 21 340 4.8 9.7 0.00 0.00 0.00 64 1015.4
20260508073152 21 349 6.4 11.3 0.00 0.00 0.00 64 1015.4
20260508072652 21 332 6.4 12.9 0.00 0.00 0.00 64 1015.4
20260508072151 21 340 6.4 12.9 0.00 0.00 0.00 64 1015.4
20260508071653 21 333 6.4 12.9 0.00 0.00 0.00 64 1015.3
20260508071153 21 338 6.4 12.9 0.00 0.00 0.00 65 1015.3
20260508070232 21 357 6.4 16.1 0.00 0.00 0.00 66 1015.3
20260508065732 20 343 6.4 16.1 0.00 0.00 0.00 66 1015.3
20260508065232 20 347 6.4 12.9 0.00 0.00 0.00 67 1015.3
20260508064732 20 343 4.8 12.9 0.00 0.00 0.00 67 1015.2
20260508063934 20 349 6.4 9.7 0.00 0.00 0.00 67 1015.3
20260508063433 20 352 4.8 9.7 0.00 0.00 0.00 67 1015.3
20260508062933 20 16 4.8 11.3 0.00 0.00 0.00 67 1015.3
20260508062433 20 9 6.4 11.3 0.00 0.00 0.00 67 1015.2
20260508061933 20 32 4.8 8.0 0.00 0.00 0.00 65 1015.3
20260508061434 21 32 3.2 4.8 0.00 0.00 0.00 63 1015.3
20260508060935 21 31 1.6 6.4 0.00 0.00 0.00 64 1015.3
20260508060433 21 31 3.2 8.0 0.00 0.00 0.00 66 1015.3
20260508055933 21 33 4.8 8.0 0.00 0.00 0.00 66 1015.3
20260508055433 21 36 4.8 6.4 0.00 0.00 0.00 65 1015.3
20260508054933 21 35 4.8 6.4 0.00 0.00 0.00 65 1015.4
20260508054433 21 0 0.0 0.0 0.00 0.00 0.00 64 1015.4
20260508053933 21 0 0.0 0.0 0.00 0.00 0.00 63 1015.4
20260508053433 21 0 0.0 0.0 0.00 0.00 0.00 63 1015.4
20260508052933 22 0 0.0 0.0 0.00 0.00 0.00 63 1015.3
20260508052433 22 0 0.0 0.0 0.00 0.00 0.00 61 1015.4
20260508051933 22 0 0.0 0.0 0.00 0.00 0.00 61 1015.3
20260508051433 22 0 0.0 3.2 0.00 0.00 0.00 60 1015.3
20260508050933 22 0 0.0 4.8 0.00 0.00 0.00 60 1015.3
20260508050433 22 34 1.6 4.8 0.00 0.00 0.00 61 1015.3
20260508045433 22 35 3.2 6.4 0.00 0.00 0.00 60 1015.2
20260508044933 22 35 3.2 6.4 0.00 0.00 0.00 60 1015.1
20260508043946 22 0 0.0 6.4 0.00 0.00 0.00 57 1015.0
20260508043447 23 0 0.0 6.4 0.00 0.00 0.00 53 1015.0
20260508042946 23 0 0.0 0.0 0.00 0.00 0.00 56 1015.0
20260508042447 23 0 0.0 0.0 0.00 0.00 0.00 58 1014.9
20260508041946 23 0 0.0 0.0 0.00 0.00 0.00 59 1014.9
20260508041446 23 0 0.0 0.0 0.00 0.00 0.00 59 1014.7
20260508040946 23 0 0.0 0.0 0.00 0.00 0.00 58 1014.7
20260508040447 23 0 0.0 0.0 0.00 0.00 0.00 56 1014.7
20260508035946 24 0 0.0 1.6 0.00 0.00 0.00 58 1014.6
20260508035447 24 0 0.0 4.8 0.00 0.00 0.00 58 1014.6
20260508034946 24 34 1.6 4.8 0.00 0.00 0.00 58 1014.5
20260508034446 25 34 3.2 4.8 0.00 0.00 0.00 57 1014.4
20260508033946 25 34 3.2 4.8 0.00 0.00 0.00 56 1014.3
20260508033446 25 34 3.2 6.4 0.00 0.00 0.00 55 1014.2
20260508032947 25 35 4.8 6.4 0.00 0.00 0.00 54 1014.2
20260508032446 25 35 3.2 6.4 0.00 0.00 0.00 54 1014.1
20260508031946 25 35 4.8 8.0 0.00 0.00 0.00 53 1014.0
20260508031446 25 35 4.8 8.0 0.00 0.00 0.00 53 1013.9
20260508030946 26 35 4.8 6.4 0.00 0.00 0.00 52 1013.9
20260508030446 26 34 4.8 6.4 0.00 0.00 0.00 51 1013.9
20260508025948 26 35 4.8 6.4 0.00 0.00 0.00 50 1013.7
20260508025055 27 35 4.8 9.7 0.00 0.00 0.00 48 1013.7
20260508024556 27 35 6.4 9.7 0.00 0.00 0.00 48 1013.6
20260508024055 27 36 4.8 9.7 0.00 0.00 0.00 47 1013.5
20260508023555 27 32 6.4 9.7 0.00 0.00 0.00 46 1013.5
20260508023055 27 32 6.4 11.3 0.00 0.00 0.00 45 1013.4
20260508022555 28 26 6.4 12.9 0.00 0.00 0.00 44 1013.4
20260508022055 28 27 8.0 12.9 0.00 0.00 0.00 44 1013.4
20260508021555 28 33 6.4 14.5 0.00 0.00 0.00 43 1013.4
20260508021055 28 28 4.8 14.5 0.00 0.00 0.00 43 1013.4
20260508020555 28 29 8.0 12.9 0.00 0.00 0.00 43 1013.3
20260508020056 28 30 6.4 14.5 0.00 0.00 0.00 43 1013.3
20260508015556 29 37 4.8 14.5 0.00 0.00 0.00 43 1013.3
20260508014501 29 24 8.0 17.7 0.00 0.00 0.00 41 1013.3
20260508014002 30 28 6.4 17.7 0.00 0.00 0.00 41 1013.3
20260508013501 30 22 8.0 16.1 0.00 0.00 0.00 41 1013.4
20260508012501 30 13 9.7 19.3 0.00 0.00 0.00 40 1013.3
20260508012002 30 14 8.0 17.7 0.00 0.00 0.00 40 1013.3
20260508011502 30 25 8.0 16.1 0.00 0.00 0.00 41 1013.3
20260508011004 30 13 9.7 17.7 0.00 0.00 0.00 39 1013.3
20260508010501 30 24 8.0 17.7 0.00 0.00 0.00 39 1013.3
20260508010001 30 18 9.7 19.3 0.00 0.00 0.00 39 1013.4
20260508005501 30 20 11.3 19.3 0.00 0.00 0.00 40 1013.4
20260508005002 30 16 9.7 19.3 0.00 0.00 0.00 39 1013.4
20260508004501 30 14 9.7 17.7 0.00 0.00 0.00 39 1013.4
20260508004003 30 22 9.7 19.3 0.00 0.00 0.00 39 1013.5
20260508003503 30 20 9.7 19.3 0.00 0.00 0.00 39 1013.5
20260508003001 30 23 9.7 19.3 0.00 0.00 0.00 39 1013.5
20260508002501 30 22 9.7 19.3 0.00 0.00 0.00 39 1013.5
20260508002001 30 38 9.7 19.3 0.00 0.00 0.00 39 1013.5
20260508001502 30 14 6.4 20.9 0.00 0.00 0.00 40 1013.6
20260508001003 30 36 9.7 20.9 0.00 0.00 0.00 39 1013.6
20260508000503 30 31 8.0 19.3 0.00 0.00 0.00 39 1013.6
20260508000002 30 28 8.0 19.3 0.00 0.00 0.00 41 1013.7
20260507235501 31 40 8.0 16.1 0.00 0.00 0.00 39 1013.7
20260507235002 31 34 8.0 17.7 0.00 0.00 0.00 39 1013.7
20260507234501 31 14 8.0 17.7 0.00 0.00 0.00 39 1013.8
20260507233501 31 29 4.8 17.7 0.00 0.00 0.00 40 1013.8
20260507232618 31 18 4.8 19.3 0.00 0.00 0.00 40 1014.0
20260507232119 30 34 6.4 20.9 0.00 0.00 0.00 42 1014.0
20260507231619 31 35 12.9 20.9 0.00 0.00 0.00 40 1014.1
20260507231119 31 37 6.4 17.7 0.00 0.00 0.00 39 1014.1
20260507230619 31 1 9.7 17.7 0.00 0.00 0.00 38 1014.1
20260507230119 31 24 4.8 16.1 0.00 0.00 0.00 39 1014.1
20260507225619 31 19 8.0 19.3 0.00 0.00 0.00 40 1014.2
20260507225119 31 355 8.0 19.3 0.00 0.00 0.00 38 1014.3
20260507224619 31 349 8.0 17.7 0.00 0.00 0.00 38 1014.3
20260507224119 31 26 6.4 17.7 0.00 0.00 0.00 40 1014.4
20260507223619 31 360 6.4 19.3 0.00 0.00 0.00 40 1014.4
20260507223119 31 3 8.0 19.3 0.00 0.00 0.00 41 1014.5
20260507222619 30 336 11.3 16.1 0.00 0.00 0.00 40 1014.5
20260507222120 30 25 6.4 17.7 0.00 0.00 0.00 41 1014.6
20260507221618 30 48 6.4 17.7 0.00 0.00 0.00 40 1014.7
20260507221119 30 19 6.4 17.7 0.00 0.00 0.00 40 1014.7
20260507220619 30 24 8.0 14.5 0.00 0.00 0.00 40 1014.7
20260507220120 30 1 4.8 16.1 0.00 0.00 0.00 40 1014.8
20260507215619 30 31 4.8 19.3 0.00 0.00 0.00 41 1014.9
20260507215119 30 26 4.8 19.3 0.00 0.00 0.00 40 1015.0
20260507214619 30 16 6.4 19.3 0.00 0.00 0.00 41 1014.9
20260507214119 30 36 4.8 17.7 0.00 0.00 0.00 42 1015.0
20260507213618 30 24 8.0 16.1 0.00 0.00 0.00 44 1015.1
20260507212942 30 49 4.8 16.1 0.00 0.00 0.00 41 1015.3
20260507212442 30 22 6.4 19.3 0.00 0.00 0.00 43 1015.4
20260507211942 29 355 8.0 19.3 0.00 0.00 0.00 42 1015.5
20260507211442 30 19 8.0 17.7 0.00 0.00 0.00 44 1015.5
20260507210942 30 20 4.8 16.1 0.00 0.00 0.00 43 1015.5
20260507210443 30 19 8.0 20.9 0.00 0.00 0.00 43 1015.7
20260507205942 30 14 9.7 20.9 0.00 0.00 0.00 43 1015.7
20260507205442 30 358 4.8 16.1 0.00 0.00 0.00 41 1015.7
20260507204942 29 354 4.8 16.1 0.00 0.00 0.00 42 1015.8
20260507204442 29 21 6.4 16.1 0.00 0.00 0.00 43 1015.9
20260507203942 29 356 6.4 16.1 0.00 0.00 0.00 42 1016.0
20260507203442 29 339 8.0 14.5 0.00 0.00 0.00 42 1016.1
20260507202942 28 348 6.4 16.1 0.00 0.00 0.00 42 1016.1
20260507202442 28 7 8.0 20.9 0.00 0.00 0.00 43 1016.1
20260507201942 29 339 12.9 30.6 0.00 0.00 0.00 42 1016.2
20260507201442 29 352 9.7 30.6 0.00 0.00 0.00 42 1016.3
20260507200943 29 322 4.8 11.3 0.00 0.00 0.00 42 1016.4
20260507200442 28 0 0.0 12.9 0.00 0.00 0.00 45 1016.4
20260507195942 28 9 3.2 12.9 0.00 0.00 0.00 45 1016.5
20260507195442 28 10 4.8 11.3 0.00 0.00 0.00 44 1016.5
20260507194545 28 268 1.6 12.9 0.00 0.00 0.00 44 1016.6
20260507194045 28 13 1.6 16.1 0.00 0.00 0.00 44 1016.7
20260507193545 28 340 8.0 16.1 0.00 0.00 0.00 45 1016.8
20260507193045 27 298 6.4 16.1 0.00 0.00 0.00 45 1016.8
20260507192545 27 241 3.2 6.4 0.00 0.00 0.00 45 1016.9
20260507192046 27 350 1.6 11.3 0.00 0.00 0.00 46 1017.0
20260507191545 27 41 4.8 11.3 0.00 0.00 0.00 47 1017.2
20260507191045 27 341 3.2 9.7 0.00 0.00 0.00 47 1017.2
20260507190320 27 303 3.2 14.5 0.00 0.00 0.00 46 1017.3
20260507185824 27 325 4.8 14.5 0.00 0.00 0.00 47 1017.3
20260507185320 26 295 6.4 11.3 0.00 0.00 0.00 50 1017.3
20260507184820 26 335 4.8 11.3 0.00 0.00 0.00 52 1017.3
20260507183820 26 0 0.0 12.9 0.00 0.00 0.00 53 1017.5
20260507182823 26 321 3.2 12.9 0.00 0.00 0.00 50 1017.6
20260507182320 26 335 1.6 12.9 0.00 0.00 0.00 51 1017.6
20260507181820 26 350 3.2 9.7 0.00 0.00 0.00 52 1017.7
20260507180820 25 331 4.8 11.3 0.00 0.00 0.00 53 1017.8
20260507175401 24 344 6.4 12.9 0.00 0.00 0.00 55 1017.9
20260507174859 23 32 3.2 12.9 0.00 0.00 0.00 56 1018.0
20260507174400 24 53 3.2 16.1 0.00 0.00 0.00 55 1018.0
20260507173901 24 0 0.0 16.1 0.00 0.00 0.00 56 1018.0
20260507173359 23 333 1.6 16.1 0.00 0.00 0.00 57 1018.0
20260507172859 23 12 4.8 16.1 0.00 0.00 0.00 58 1018.0
20260507172401 23 56 1.6 14.5 0.00 0.00 0.00 59 1018.2
20260507171859 23 18 4.8 14.5 0.00 0.00 0.00 61 1018.2
20260507171359 22 51 4.8 17.7 0.00 0.00 0.00 61 1018.2
20260507170859 22 24 9.7 17.7 0.00 0.00 0.00 62 1018.2
20260507170040 22 346 4.8 14.5 0.00 0.00 0.00 62 1018.2
20260507165325 22 341 8.0 16.1 0.00 0.00 0.00 62 1018.2
20260507164826 22 2 6.4 17.7 0.00 0.00 0.00 62 1018.3
20260507164327 22 343 8.0 17.7 0.00 0.00 0.00 63 1018.3
20260507163826 21 355 9.7 16.1 0.00 0.00 0.00 63 1018.3
20260507163327 21 351 6.4 17.7 0.00 0.00 0.00 64 1018.4
20260507162826 21 326 9.7 17.7 0.00 0.00 0.00 65 1018.3
20260507162326 21 347 8.0 17.7 0.00 0.00 0.00 65 1018.4
20260507161825 21 331 6.4 16.1 0.00 0.00 0.00 66 1018.5
20260507161326 21 330 8.0 19.3 0.00 0.00 0.00 66 1018.4
20260507160825 20 323 9.7 19.3 0.00 0.00 0.00 67 1018.4
20260507160326 20 335 9.7 14.5 0.00 0.00 0.00 67 1018.4
20260507155825 20 344 6.4 17.7 0.00 0.00 0.00 68 1018.4
20260507155326 20 19 4.8 17.7 0.00 0.00 0.00 68 1018.4
20260507154826 20 345 6.4 17.7 0.00 0.00 0.00 69 1018.5
20260507154326 20 329 8.0 17.7 0.00 0.00 0.00 69 1018.5
20260507153826 20 320 11.3 16.1 0.00 0.00 0.00 70 1018.6
20260507153326 19 320 8.0 16.1 0.00 0.00 0.00 71 1018.5
20260507152826 19 324 8.0 17.7 0.00 0.00 0.00 72 1018.4
20260507152326 18 331 11.3 19.3 0.00 0.00 0.00 73 1018.4
20260507151826 18 323 11.3 19.3 0.00 0.00 0.00 73 1018.5
20260507151325 18 332 11.3 17.7 0.00 0.00 0.00 73 1018.5
20260507150830 18 318 11.3 17.7 0.00 0.00 0.00 74 1018.5
20260507150327 18 325 6.4 16.1 0.00 0.00 0.00 74 1018.6
20260507145826 17 328 6.4 16.1 0.00 0.00 0.00 74 1018.6
20260507145326 17 332 8.0 16.1 0.00 0.00 0.00 74 1018.6
20260507144826 17 329 9.7 16.1 0.00 0.00 0.00 74 1018.6
20260507144325 17 325 8.0 14.5 0.00 0.00 0.00 74 1018.5
20260507143826 17 320 6.4 12.9 0.00 0.00 0.00 75 1018.6
20260507143327 16 311 4.8 8.0 0.00 0.00 0.00 75 1018.5
20260507142826 16 290 4.8 8.0 0.00 0.00 0.00 75 1018.5
20260507142325 16 277 4.8 6.4 0.00 0.00 0.00 75 1018.5
20260507141825 16 272 4.8 6.4 0.00 0.00 0.00 75 1018.4
20260507141326 16 263 4.8 6.4 0.00 0.00 0.00 75 1018.4
20260507140826 15 263 4.8 6.4 0.00 0.00 0.00 75 1018.3
20260507140327 15 258 3.2 6.4 0.00 0.00 0.00 74 1018.3
20260507135825 15 248 3.2 6.4 0.00 0.00 0.00 74 1018.3
20260507134849 15 249 4.8 6.4 0.00 0.00 0.00 75 1018.2
20260507134350 15 250 3.2 6.4 0.00 0.00 0.00 75 1018.2
20260507133849 14 251 3.2 6.4 0.00 0.00 0.00 75 1018.2
20260507133349 14 0 0.0 6.4 0.00 0.00 0.00 76 1018.1
20260507132848 14 250 4.8 8.0 0.00 0.00 0.00 75 1018.0
20260507132349 13 255 3.2 8.0 0.00 0.00 0.00 75 1018.0
20260507131850 13 250 4.8 11.3 0.00 0.00 0.00 75 1017.9
20260507131348 13 242 6.4 11.3 0.00 0.00 0.00 75 1017.9
20260507130849 13 236 6.4 9.7 0.00 0.00 0.00 75 1017.8
20260507130351 13 230 6.4 9.7 0.00 0.00 0.00 75 1017.8
20260507125849 13 242 4.8 12.9 0.00 0.00 0.00 75 1017.8
20260507125349 13 240 6.4 12.9 0.00 0.00 0.00 75 1017.8
20260507124849 13 241 6.4 11.3 0.00 0.00 0.00 75 1017.7
20260507124349 13 246 6.4 9.7 0.00 0.00 0.00 74 1017.6
20260507123849 13 249 4.8 8.0 0.00 0.00 0.00 74 1017.7
20260507123349 13 244 4.8 8.0 0.00 0.00 0.00 74 1017.7
20260507122849 13 234 6.4 9.7 0.00 0.00 0.00 74 1017.6
20260507122349 13 230 6.4 9.7 0.00 0.00 0.00 74 1017.5
20260507121849 13 218 6.4 9.7 0.00 0.00 0.00 74 1017.6
20260507121349 13 226 6.4 11.3 0.00 0.00 0.00 73 1017.6
20260507120849 13 238 6.4 12.9 0.00 0.00 0.00 73 1017.6
20260507120348 13 243 9.7 12.9 0.00 0.00 0.00 73 1017.6
20260507115354 13 243 8.0 12.9 0.00 0.00 0.00 73 1017.6
20260507114854 13 239 8.0 11.3 0.00 0.00 0.00 73 1017.6
20260507114354 14 239 8.0 9.7 0.00 0.00 0.00 73 1017.6
20260507113854 14 230 8.0 9.7 0.00 0.00 0.00 73 1017.8
20260507113108 14 236 6.4 9.7 0.00 0.00 0.00 73 1017.7
20260507112606 14 239 6.4 9.7 0.00 0.00 0.00 73 1017.7
20260507112105 14 240 6.4 12.9 0.00 0.00 0.00 73 1017.7
20260507111605 14 238 8.0 14.5 0.00 0.00 0.00 73 1017.7
20260507111106 14 238 9.7 14.5 0.00 0.00 0.00 73 1017.7
20260507110606 14 237 8.0 12.9 0.00 0.00 0.00 72 1017.8
20260507110105 14 253 4.8 9.7 0.00 0.00 0.00 72 1017.8
20260507105105 14 236 8.0 9.7 0.00 0.00 0.00 72 1017.8
20260507104605 14 233 8.0 12.9 0.00 0.00 0.00 72 1017.9
20260507104105 14 235 8.0 12.9 0.00 0.00 0.00 72 1017.8
20260507103605 14 234 6.4 9.7 0.00 0.00 0.00 71 1017.8
20260507103105 14 238 6.4 9.7 0.00 0.00 0.00 71 1017.8
20260507102607 14 236 6.4 9.7 0.00 0.00 0.00 71 1017.8
20260507102105 14 232 4.8 6.4 0.00 0.00 0.00 71 1017.8
20260507101605 14 230 3.2 6.4 0.00 0.00 0.00 71 1017.8